KCBG

Cambridge Municipal Airport

Cambridge, Minnesota, USA
METAR KCBG 212315Z AUTO 30006KT 10SM CLR 23/13 A3012 RMK AO2
Observed Flight Rules
Aug-21 @ 23:15 UTC (32 minutes ago) Visual Flight Rules
Wind Visibility Clouds
300° at 6 knots 10 miles
  • Clear skies
Temperatures Readings
Current 23°C / 73°F
Dewpoint 13°C / 55°F
Humidity 53%
Altimeter 30.12" Hg
Pressure 1020 hPa
Elevation 287
METAR KCBG 212315Z AUTO 30006KT 10SM CLR 23/13 A3012 RMK AO2
Observed Flight Rules
Aug-21 @ 23:15 UTC
(32 minutes ago)
VFR
Wind Visibility
300° at 6 knots 10 miles
Clouds
  • Clear skies
Temperature Dewpoint
23°C / 73°F 13°C / 55°F
Humidity Altimeter Pressure
53% 30.12" Hg 1020 hPa